Ocean Beaut — WDD7485 — position and weather

sailwx.info

Track history (hours):
 
Tides and Currents Weather Stations Pressure Air Temp Water Temp Dewpoint Dewpoint Depression Visibility Wind Speed Wind Dir Waves Ship Positions

Ocean Beaut

More information available from US FCC via Universal Licensing System.

Last reported at 2014-Sep-27 08:33 UTC. Time now 2014-Sep-30 12:02 UTC.
Position N 46°13' W 123°57'.

Length 20 m.

Type: Fishing. MMSI: 367187080.

Date/timePositionNaut miles runAvg speedWind from/ knotsBaromVisibWave heightAir tempDewpointWater temp
2014-Sep-27 08:33N 46°13' W 123°57'4 4.1
2014-Sep-27 07:32N 46°11' W 123°51'0 0.0
2014-Sep-27 06:32N 46°11' W 123°51'0 0.0
2014-Sep-27 05:32N 46°11' W 123°51'0 0.0
2014-Sep-27 04:33N 46°11' W 123°51'1 0.9
2014-Sep-27 03:34N 46°12' W 123°50'2 0.5
2014-Sep-27 00:18N 46°12' W 123°48'0 0.0
2014-Sep-26 19:30N 46°12' W 123°48'0 0.0
2014-Sep-26 18:30N 46°12' W 123°48'0 0.0
2014-Sep-26 17:24N 46°12' W 123°48'0 0.0
2014-Sep-26 16:30N 46°12' W 123°48'0 0.0
2014-Sep-26 15:30N 46°12' W 123°48'0 0.0
2014-Sep-26 14:30N 46°12' W 123°48'0 0.0
2014-Sep-26 13:30N 46°12' W 123°48'0 0.0
2014-Sep-26 12:21N 46°12' W 123°48'0 0.0
2014-Sep-26 11:33N 46°12' W 123°48'0 0.0
2014-Sep-26 10:30N 46°12' W 123°48'0 0.0
2014-Sep-26 09:18N 46°12' W 123°48'0 0.0
2014-Sep-26 08:27N 46°12' W 123°48'0 0.0
2014-Sep-26 00:30N 46°12' W 123°48'0 0.0
2014-Sep-25 23:27N 46°12' W 123°48'2 0.3
2014-Sep-25 17:33N 46°12' W 123°50'2 0.2
2014-Sep-25 09:21N 46°12' W 123°48'0 0.0
2014-Sep-25 08:33N 46°12' W 123°48'0 0.0
2014-Sep-25 07:33N 46°12' W 123°48'0 0.0
2014-Sep-25 06:21N 46°12' W 123°48'0 0.0
2014-Sep-24 22:25N 46°12' W 123°48'0 0.0
2014-Sep-24 20:25N 46°12' W 123°48'0 0.0
2014-Sep-24 19:07N 46°12' W 123°48'0 0.0
2014-Sep-24 18:25N 46°12' W 123°48'0 0.0
2014-Sep-24 17:25N 46°12' W 123°48'0 0.0
2014-Sep-24 15:25N 46°12' W 123°48'0 0.0
2014-Sep-24 14:31N 46°12' W 123°48'0 0.0
2014-Sep-24 08:07N 46°12' W 123°48'0 0.0
2014-Sep-24 07:31N 46°12' W 123°48'0 0.0
2014-Sep-24 06:31N 46°12' W 123°48'0 0.0
2014-Sep-23 22:31N 46°12' W 123°48'0 0.0
2014-Sep-23 20:16N 46°12' W 123°48'0 0.0
2014-Sep-23 11:04N 46°12' W 123°48'0 0.0
2014-Sep-21 23:25N 46°12' W 123°48'0 0.0
2014-Sep-21 21:31N 46°12' W 123°48'0 0.0
2014-Sep-21 20:31N 46°12' W 123°48'0 0.0
2014-Sep-21 17:13N 46°12' W 123°48'0 0.0
2014-Sep-21 16:31N 46°12' W 123°48'0 0.0
2014-Sep-20 21:25N 46°12' W 123°48'0 0.0
2014-Sep-20 20:25N 46°12' W 123°48'0 0.0
2014-Sep-20 19:28N 46°12' W 123°48'0 0.0
2014-Sep-20 18:16N 46°12' W 123°48'1 0.1
2014-Sep-20 01:33N 46°12' W 123°50'1 1.2
2014-Sep-20 00:33N 46°11' W 123°51'0 0.0
2014-Sep-19 23:33N 46°11' W 123°51'0 0.0
2014-Sep-19 22:33N 46°11' W 123°51'0 0.0
2014-Sep-19 21:33N 46°11' W 123°51'0 0.0
2014-Sep-19 20:33N 46°11' W 123°51'0 0.0
2014-Sep-19 19:33N 46°11' W 123°51'0 0.0
2014-Sep-19 18:33N 46°11' W 123°51'0 0.0
2014-Sep-19 17:31N 46°11' W 123°51'0 0.0
2014-Sep-19 16:31N 46°11' W 123°51'2 2.1
2014-Sep-19 15:33N 46°12' W 123°49'0 0.3
2014-Sep-19 14:10N 46°12' W 123°48'0 0.0
2014-Sep-19 11:04N 46°12' W 123°48'0 0.0
2014-Sep-19 09:22N 46°12' W 123°48'0 0.0
2014-Sep-19 08:22N 46°12' W 123°48'0 0.0
2014-Sep-19 07:04N 46°12' W 123°48'0 0.0
2014-Sep-19 06:28N 46°12' W 123°48'0 0.0
2014-Sep-19 05:16N 46°12' W 123°48'0 0.2
2014-Sep-19 04:32N 46°12' W 123°48'6 6.6
2014-Sep-19 03:33N 46°13' W 123°57'  
Track history (hours):
 
Tides and Currents Weather Stations Pressure Air Temp Water Temp Dewpoint Dewpoint Depression Visibility Wind Speed Wind Dir Waves Ship Positions

Ocean Beaut

More information available from US FCC via Universal Licensing System.

Last reported at 2014-Sep-27 08:33 UTC. Time now 2014-Sep-30 12:02 UTC.
Position N 46°13' W 123°57'.

Length 20 m.

Type: Fishing. MMSI: 367187080.

Date/timePositionNaut miles runAvg speedWind from/ knotsBaromVisibWave heightAir tempDewpointWater temp
2014-Sep-27 08:33N 46°13' W 123°57'4 4.1
2014-Sep-27 07:32N 46°11' W 123°51'0 0.0
2014-Sep-27 06:32N 46°11' W 123°51'0 0.0
2014-Sep-27 05:32N 46°11' W 123°51'0 0.0
2014-Sep-27 04:33N 46°11' W 123°51'1 0.9
2014-Sep-27 03:34N 46°12' W 123°50'2 0.5
2014-Sep-27 00:18N 46°12' W 123°48'0 0.0
2014-Sep-26 19:30N 46°12' W 123°48'0 0.0
2014-Sep-26 18:30N 46°12' W 123°48'0 0.0
2014-Sep-26 17:24N 46°12' W 123°48'0 0.0
2014-Sep-26 16:30N 46°12' W 123°48'0 0.0
2014-Sep-26 15:30N 46°12' W 123°48'0 0.0
2014-Sep-26 14:30N 46°12' W 123°48'0 0.0
2014-Sep-26 13:30N 46°12' W 123°48'0 0.0
2014-Sep-26 12:21N 46°12' W 123°48'0 0.0
2014-Sep-26 11:33N 46°12' W 123°48'0 0.0
2014-Sep-26 10:30N 46°12' W 123°48'0 0.0
2014-Sep-26 09:18N 46°12' W 123°48'0 0.0
2014-Sep-26 08:27N 46°12' W 123°48'0 0.0
2014-Sep-26 00:30N 46°12' W 123°48'0 0.0
2014-Sep-25 23:27N 46°12' W 123°48'2 0.3
2014-Sep-25 17:33N 46°12' W 123°50'2 0.2
2014-Sep-25 09:21N 46°12' W 123°48'0 0.0
2014-Sep-25 08:33N 46°12' W 123°48'0 0.0
2014-Sep-25 07:33N 46°12' W 123°48'0 0.0
2014-Sep-25 06:21N 46°12' W 123°48'0 0.0
2014-Sep-24 22:25N 46°12' W 123°48'0 0.0
2014-Sep-24 20:25N 46°12' W 123°48'0 0.0
2014-Sep-24 19:07N 46°12' W 123°48'0 0.0
2014-Sep-24 18:25N 46°12' W 123°48'0 0.0
2014-Sep-24 17:25N 46°12' W 123°48'0 0.0
2014-Sep-24 15:25N 46°12' W 123°48'0 0.0
2014-Sep-24 14:31N 46°12' W 123°48'0 0.0
2014-Sep-24 08:07N 46°12' W 123°48'0 0.0
2014-Sep-24 07:31N 46°12' W 123°48'0 0.0
2014-Sep-24 06:31N 46°12' W 123°48'0 0.0
2014-Sep-23 22:31N 46°12' W 123°48'0 0.0
2014-Sep-23 20:16N 46°12' W 123°48'0 0.0
2014-Sep-23 11:04N 46°12' W 123°48'0 0.0
2014-Sep-21 23:25N 46°12' W 123°48'0 0.0
2014-Sep-21 21:31N 46°12' W 123°48'0 0.0
2014-Sep-21 20:31N 46°12' W 123°48'0 0.0
2014-Sep-21 17:13N 46°12' W 123°48'0 0.0
2014-Sep-21 16:31N 46°12' W 123°48'0 0.0
2014-Sep-20 21:25N 46°12' W 123°48'0 0.0
2014-Sep-20 20:25N 46°12' W 123°48'0 0.0
2014-Sep-20 19:28N 46°12' W 123°48'0 0.0
2014-Sep-20 18:16N 46°12' W 123°48'1 0.1
2014-Sep-20 01:33N 46°12' W 123°50'1 1.2
2014-Sep-20 00:33N 46°11' W 123°51'0 0.0
2014-Sep-19 23:33N 46°11' W 123°51'0 0.0
2014-Sep-19 22:33N 46°11' W 123°51'0 0.0
2014-Sep-19 21:33N 46°11' W 123°51'0 0.0
2014-Sep-19 20:33N 46°11' W 123°51'0 0.0
2014-Sep-19 19:33N 46°11' W 123°51'0 0.0
2014-Sep-19 18:33N 46°11' W 123°51'0 0.0
2014-Sep-19 17:31N 46°11' W 123°51'0 0.0
2014-Sep-19 16:31N 46°11' W 123°51'2 2.1
2014-Sep-19 15:33N 46°12' W 123°49'0 0.3
2014-Sep-19 14:10N 46°12' W 123°48'0 0.0
2014-Sep-19 11:04N 46°12' W 123°48'0 0.0
2014-Sep-19 09:22N 46°12' W 123°48'0 0.0
2014-Sep-19 08:22N 46°12' W 123°48'0 0.0
2014-Sep-19 07:04N 46°12' W 123°48'0 0.0
2014-Sep-19 06:28N 46°12' W 123°48'0 0.0
2014-Sep-19 05:16N 46°12' W 123°48'0 0.2
2014-Sep-19 04:32N 46°12' W 123°48'6 6.6
2014-Sep-19 03:33N 46°13' W 123°57'  

Dump ship's entire track history